Seaside, OR

3:25 PM PDT on March 28, 2017 (GMT -0700)
Ocean Vista Dr | | Change Station

Elev 16 ft 45.98 °N, 123.93 °W | Updated 8 seconds ago

Overcast
Overcast
51.0 °F
Feels Like 51.0 °F
N
13.0
Wind Variable Wind from South
Gusts 24.2 mph

Today
High -- | Low -- °F
--% Chance of Precip.
Yesterday
High -- | Low -- °F
Precip. -- in
Pressure 30.21 in
Visibility 9.0 miles
Clouds Mostly Cloudy 4200 ft
Overcast 5000 ft
Dew Point 48 °F
Humidity 88%
Rainfall 0.25 in
Snow Depth Not available.
7:02 AM 7:39 PM
New Moon, 1% visible
METAR KAST 282155Z AUTO 20019G29KT 9SM -RA BKN042 OVC050 11/07 A3021 RMK AO2 PK WND 19031/2107 RAE02B15 SLP229 P0000 T01060067
Pressure 30.21 in
Visibility 9.0 miles
Clouds Mostly Cloudy 4200 ft
Overcast 5000 ft
Dew Point 48 °F
Humidity 88%
Rainfall 0.25 in
Snow Depth Not available.
7:02 AM 7:39 PM
New Moon, 1% visible
METAR KAST 282155Z AUTO 20019G29KT 9SM -RA BKN042 OVC050 11/07 A3021 RMK AO2 PK WND 19031/2107 RAE02B15 SLP229 P0000 T01060067

Get Severe Weather Alerts

Thanks for signing up!

Be on the lookout for a verification email in your inbox.

You'll start receiving the daily forecast at 8 AM.

×

10-Day Weather Forecast

Almanac

Astronomy

Mar. 28, 2017 Rise Set
Actual Time
Civil Twilight
Nautical Twilight
Astronomical Twilight
Moon
Length of Visible Light
Length of Day
Tomorrow will be .
, % of the Moon is Illuminated

Today's Extremes

State Highs State Lows

Community

WunderPhotos

Upload Photos

1,962,540 photos uploaded!

WunderBlog® & News

Nearby

Air Quality

  Air Quality AQ Index Pollutant
Not available.

Snow Depth

Station Depth Elevation

Earthquake Activity

City Distance Mag. Time & Date
Minimum magnitude displayed is 2.5.

Earthquake Activity

City Distance Mag. Time & Date
Minimum magnitude displayed is 2.5.

Coastal Water Temperatures

Place Temperature

Stations

Nearby Weather Stations

Station Location Temp. Windchill Dew Point Humidity Wind Precip. Elev Updated Type
                   

Watches & Warnings

There are currently no watches in effect.